createdAt,value
2018-12-31T12:11:58.810Z,92.94
2018-12-31T12:14:31.835Z,92.90
2018-12-31T12:17:03.990Z,92.80
2018-12-31T12:19:37.034Z,92.82
2018-12-31T12:22:09.197Z,92.81
2018-12-31T12:24:42.386Z,92.75
2018-12-31T12:27:14.746Z,92.72
2018-12-31T12:29:46.894Z,92.70
2018-12-31T12:32:19.820Z,92.64
2018-12-31T12:34:59.306Z,92.59
2018-12-31T12:37:31.769Z,92.50
2018-12-31T12:40:08.410Z,92.47
2018-12-31T12:42:42.998Z,92.40
2018-12-31T12:45:15.548Z,92.42
2018-12-31T12:47:47.542Z,92.38
2018-12-31T12:50:20.004Z,92.39
2018-12-31T12:52:59.554Z,92.36
2018-12-31T12:55:31.927Z,92.35
2018-12-31T12:58:04.423Z,92.35
2018-12-31T13:00:38.517Z,92.35
2018-12-31T13:03:17.495Z,92.36
2018-12-31T13:10:35.855Z,92.30
2018-12-31T13:13:08.055Z,92.30
2018-12-31T13:15:57.475Z,92.33
2018-12-31T13:18:30.092Z,92.29
2018-12-31T13:21:01.902Z,92.32
2018-12-31T13:23:34.410Z,92.33
2018-12-31T13:26:06.801Z,92.33
2018-12-31T13:28:39.311Z,92.36
2018-12-31T13:31:12.012Z,92.36
2018-12-31T13:33:48.282Z,92.40
2018-12-31T13:36:20.743Z,92.39
2018-12-31T13:38:54.009Z,92.40
2018-12-31T13:41:26.197Z,92.40
2018-12-31T13:43:58.632Z,92.35
2018-12-31T13:46:31.795Z,92.32
2018-12-31T13:49:03.903Z,92.27
2018-12-31T13:51:38.540Z,92.30
2018-12-31T13:54:10.938Z,92.24
2018-12-31T13:56:45.022Z,92.17
2018-12-31T13:59:17.878Z,92.13
2018-12-31T14:01:50.746Z,92.10
2018-12-31T14:04:22.990Z,92.05
2018-12-31T14:06:54.939Z,92.03
2018-12-31T14:09:27.588Z,92.04
2018-12-31T14:12:00.148Z,92.02
2018-12-31T14:14:32.528Z,92.00
2018-12-31T14:17:05.990Z,92.00
2018-12-31T14:19:43.261Z,92.01
2018-12-31T14:22:16.984Z,92.00
2018-12-31T14:24:50.814Z,92.00
2018-12-31T14:27:25.820Z,91.99
2018-12-31T14:29:58.800Z,91.99
2018-12-31T14:32:34.093Z,91.98
2018-12-31T14:35:07.702Z,91.98
2018-12-31T14:37:40.925Z,92.01
2018-12-31T14:40:13.278Z,91.99
2018-12-31T14:42:45.201Z,91.94
2018-12-31T14:45:17.954Z,91.93
2018-12-31T14:47:50.091Z,91.93
2018-12-31T14:50:22.371Z,91.91
2018-12-31T14:52:54.757Z,91.87
2018-12-31T14:55:27.417Z,91.90
2018-12-31T14:58:01.412Z,91.90
2018-12-31T15:00:33.788Z,91.90
2018-12-31T15:03:06.326Z,91.90
2018-12-31T15:05:38.114Z,91.87
2018-12-31T15:08:10.787Z,91.91
2018-12-31T15:10:43.116Z,91.88
2018-12-31T15:13:14.922Z,91.89
2018-12-31T15:15:47.281Z,91.89
2018-12-31T15:18:19.931Z,91.88
2018-12-31T15:20:51.712Z,91.86
2018-12-31T15:23:24.988Z,91.89
2018-12-31T15:25:58.680Z,91.89
2018-12-31T15:28:31.453Z,91.90
2018-12-31T15:31:03.247Z,91.91
2018-12-31T15:33:35.709Z,91.93
2018-12-31T15:36:08.056Z,91.95
2018-12-31T15:38:40.796Z,91.92
2018-12-31T15:41:12.691Z,91.93
2018-12-31T15:43:45.479Z,91.95
2018-12-31T15:46:20.445Z,91.93
2018-12-31T15:48:53.360Z,91.98
2018-12-31T15:51:28.513Z,91.95
2018-12-31T15:54:01.493Z,92.00
2018-12-31T15:56:33.612Z,92.01
2018-12-31T15:59:06.000Z,92.04
2018-12-31T16:01:38.440Z,92.01
2018-12-31T16:04:10.935Z,92.00
2018-12-31T16:06:43.690Z,92.03
2018-12-31T16:09:15.836Z,92.06
2018-12-31T16:11:48.194Z,92.10
2018-12-31T16:14:20.612Z,92.12
2018-12-31T16:16:52.977Z,92.12
2018-12-31T16:19:25.373Z,92.15
2018-12-31T16:21:57.997Z,92.17
2018-12-31T16:24:30.257Z,92.17
2018-12-31T16:27:03.596Z,92.22
2018-12-31T16:29:37.374Z,92.22
2018-12-31T16:32:09.729Z,92.24
2018-12-31T16:34:42.113Z,92.26
2018-12-31T16:37:14.580Z,92.29
2018-12-31T16:39:47.383Z,92.28
2018-12-31T16:42:19.452Z,92.33
2018-12-31T16:44:51.839Z,92.36
2018-12-31T16:47:24.239Z,92.37
2018-12-31T16:49:56.979Z,92.38
2018-12-31T16:52:30.260Z,92.40
2018-12-31T16:55:03.116Z,92.44
2018-12-31T16:57:35.317Z,92.46
2018-12-31T17:00:08.381Z,92.45
2018-12-31T17:02:40.838Z,92.49
2018-12-31T17:05:13.203Z,92.51
2018-12-31T17:07:45.399Z,92.50
2018-12-31T17:10:17.626Z,92.52
2018-12-31T17:12:49.902Z,92.57
2018-12-31T17:15:22.429Z,92.58
2018-12-31T17:17:54.826Z,92.63
2018-12-31T17:20:26.637Z,92.60
2018-12-31T17:22:59.048Z,92.62
2018-12-31T17:25:31.412Z,92.63
2018-12-31T17:28:04.336Z,92.66
2018-12-31T17:30:36.558Z,92.70
2018-12-31T17:33:08.357Z,92.70
2018-12-31T17:35:43.087Z,92.74
2018-12-31T17:38:16.608Z,92.76
2018-12-31T17:40:47.488Z,92.77
2018-12-31T17:43:19.223Z,92.80
2018-12-31T17:45:51.924Z,92.78
2018-12-31T17:48:24.128Z,92.86
2018-12-31T17:50:56.180Z,92.86
2018-12-31T17:53:28.832Z,92.86
2018-12-31T17:56:01.179Z,92.89
2018-12-31T17:58:36.452Z,92.93
2018-12-31T18:01:09.271Z,92.94
2018-12-31T18:03:41.385Z,92.97
2018-12-31T18:06:13.840Z,92.96
2018-12-31T18:08:46.533Z,93.01
2018-12-31T18:11:24.011Z,93.03
2018-12-31T18:13:56.488Z,93.01
2018-12-31T18:16:28.845Z,93.06
2018-12-31T18:19:01.199Z,93.08
2018-12-31T18:21:33.635Z,93.06
2018-12-31T18:24:06.008Z,93.08
2018-12-31T18:26:38.387Z,93.11
2018-12-31T18:29:11.150Z,93.10
2018-12-31T18:31:49.464Z,93.08
2018-12-31T18:34:40.170Z,93.11
2018-12-31T18:37:30.791Z,93.16
2018-12-31T18:40:22.321Z,93.16
2018-12-31T18:43:12.826Z,93.20
2018-12-31T18:46:03.301Z,93.21
2018-12-31T18:48:54.263Z,93.26
2018-12-31T18:51:45.042Z,93.28
2018-12-31T18:54:35.447Z,93.29
2018-12-31T18:57:26.041Z,93.34
2018-12-31T19:00:16.711Z,93.36
2018-12-31T19:03:07.369Z,93.37
2018-12-31T19:05:58.443Z,93.40
2018-12-31T19:08:48.907Z,93.42
2018-12-31T19:11:39.414Z,93.43
2018-12-31T19:14:30.340Z,93.46
2018-12-31T19:17:20.743Z,93.50
2018-12-31T19:20:11.556Z,93.50
2018-12-31T19:23:02.667Z,93.54
2018-12-31T19:25:53.441Z,93.53
2018-12-31T19:28:44.420Z,93.58
2018-12-31T19:31:35.085Z,93.57
2018-12-31T19:34:26.073Z,93.58
2018-12-31T19:37:16.639Z,93.58
2018-12-31T19:40:07.347Z,93.60
2018-12-31T19:42:58.259Z,93.59
2018-12-31T19:45:48.947Z,93.58
2018-12-31T19:48:39.929Z,93.62
2018-12-31T19:51:30.432Z,93.62
2018-12-31T19:54:20.875Z,93.61
2018-12-31T19:57:11.254Z,93.63
2018-12-31T20:00:01.826Z,93.62
2018-12-31T20:02:52.338Z,93.64
2018-12-31T20:05:43.071Z,93.64
2018-12-31T20:08:36.674Z,93.65
2018-12-31T20:11:27.163Z,93.62
2018-12-31T20:14:17.735Z,93.60
2018-12-31T20:17:08.312Z,93.63
2018-12-31T20:19:58.807Z,93.64
2018-12-31T20:22:49.688Z,93.64
2018-12-31T20:25:40.519Z,93.63
2018-12-31T20:28:31.241Z,93.67
2018-12-31T20:31:22.048Z,93.66
2018-12-31T20:34:12.516Z,93.63
2018-12-31T20:37:02.900Z,93.68
2018-12-31T20:39:53.178Z,93.68
2018-12-31T20:42:43.847Z,93.69
2018-12-31T20:45:34.257Z,93.67
2018-12-31T20:48:24.951Z,93.73
2018-12-31T20:51:15.620Z,93.74
2018-12-31T20:54:06.198Z,93.72
2018-12-31T20:56:56.791Z,93.72
2018-12-31T20:59:39.010Z,93.72
2018-12-31T21:02:10.894Z,93.74
2018-12-31T21:04:43.351Z,93.72
2018-12-31T21:07:15.856Z,93.73
2018-12-31T21:09:48.240Z,93.74
2018-12-31T21:12:20.647Z,93.75
2018-12-31T21:14:53.046Z,93.74
2018-12-31T21:17:25.466Z,93.72
2018-12-31T21:19:57.872Z,93.69
2018-12-31T21:22:30.262Z,93.69
2018-12-31T21:25:02.638Z,93.71
2018-12-31T21:27:35.138Z,93.71
2018-12-31T21:30:10.690Z,93.70
2018-12-31T21:32:43.081Z,93.70
2018-12-31T21:35:15.711Z,93.74
2018-12-31T21:37:47.987Z,93.69
2018-12-31T21:40:20.383Z,93.73
2018-12-31T21:42:52.797Z,93.69
2018-12-31T21:45:25.193Z,93.71
2018-12-31T21:47:57.426Z,93.70
2018-12-31T21:50:29.795Z,93.69
2018-12-31T21:53:02.655Z,93.72
2018-12-31T21:55:34.842Z,93.70
2018-12-31T21:58:07.286Z,93.68
2018-12-31T22:00:39.862Z,93.68
2018-12-31T22:03:11.700Z,93.67
2018-12-31T22:05:44.105Z,93.66
2018-12-31T22:08:16.532Z,93.65
2018-12-31T22:10:48.943Z,93.67
2018-12-31T22:13:21.515Z,93.66
2018-12-31T22:15:53.874Z,93.66
2018-12-31T22:18:26.392Z,93.69
2018-12-31T22:20:58.795Z,93.68
2018-12-31T22:23:31.219Z,93.68
2018-12-31T22:26:03.576Z,93.68
2018-12-31T22:28:37.051Z,93.70
2018-12-31T22:31:07.932Z,93.70
2018-12-31T22:33:39.665Z,93.69
2018-12-31T22:36:12.073Z,93.68
2018-12-31T22:38:44.711Z,93.70
2018-12-31T22:41:16.532Z,93.70
2018-12-31T22:43:49.071Z,93.70
2018-12-31T22:46:21.468Z,93.70
2018-12-31T22:48:53.851Z,93.71
2018-12-31T22:51:26.429Z,93.71
2018-12-31T22:53:58.860Z,93.70
2018-12-31T22:56:31.665Z,93.71
2018-12-31T22:59:03.908Z,93.70
2018-12-31T23:01:36.247Z,93.74
2018-12-31T23:04:08.641Z,93.73
2018-12-31T23:06:42.820Z,93.75
2018-12-31T23:09:17.155Z,93.74
2018-12-31T23:11:49.685Z,93.75
2018-12-31T23:14:22.183Z,93.74
2018-12-31T23:17:03.789Z,93.75
2018-12-31T23:19:41.667Z,93.76
2018-12-31T23:22:10.821Z,93.77
2018-12-31T23:24:43.288Z,93.77
2018-12-31T23:27:15.811Z,93.77
2018-12-31T23:29:48.252Z,93.75
2018-12-31T23:32:20.713Z,93.75
2018-12-31T23:34:53.398Z,93.74
2018-12-31T23:37:25.897Z,93.74
2018-12-31T23:39:58.330Z,93.77
2018-12-31T23:42:30.811Z,93.74
2018-12-31T23:45:03.425Z,93.75
2018-12-31T23:47:35.840Z,93.75
2018-12-31T23:50:10.880Z,93.73
2018-12-31T23:52:45.330Z,93.74
2018-12-31T23:55:17.741Z,93.75
2018-12-31T23:57:50.133Z,93.75
